AQQ10 IFIS: Internet Flight Information System
logo dgac
Miércoles 28 de Febrero del 2024
Buscar por aerodromo o helipuerto
Ingrese nombre de aeródromo, localidad o designador OACI:
METAR del 28-02-2024 a las 00:00 UTC
Para mayor información visite www.meteochile.gob.cl
METAR SCFT 280000Z AUTO 31005KT 260V340 9999 -SHRA SCT022/// BKN045/// 15/13 Q1009
Viento: dirección 310 grados, velocidad 5 nudos
Viento con dirección variable entre 260 y 340 grados
Visibilidad: 10 km o más
Débil ChubascosLluvia
Nubes: Nubosidad parcial a 2200 pies sobre el nivel del aeródromo, Tipo de nubes no disponible
Nubes: Nublado a 4500 pies sobre el nivel del aeródromo, Tipo de nubes no disponible
Temperatura: 15 °C
Rocío: 13 °C
Humedad_relativa: 88%
Presión: 1009 hPa
METAR del 27-02-2024 a las 23:00 UTC
Para mayor información visite www.meteochile.gob.cl
METAR SCFT 272300Z AUTO 28006KT 210V330 9999 -SHRA FEW023/// OVC045/// 16/13 Q1009
Viento: dirección 280 grados, velocidad 6 nudos
Viento con dirección variable entre 210 y 330 grados
Visibilidad: 10 km o más
Débil ChubascosLluvia
Nubes: Escasa nubosidad a 2300 pies sobre el nivel del aeródromo, Tipo de nubes no disponible
Nubes: Cubierto a 4500 pies sobre el nivel del aeródromo, Tipo de nubes no disponible
Temperatura: 16 °C
Rocío: 13 °C
Humedad_relativa: 82%
Presión: 1009 hPa
METAR del 27-02-2024 a las 22:00 UTC
Para mayor información visite www.meteochile.gob.cl
METAR SCFT 272200Z AUTO 28006KT 250V310 9999 -SHRA FEW020/// SCT024/// OVC044/// 16/14 Q1009
Viento: dirección 280 grados, velocidad 6 nudos
Viento con dirección variable entre 250 y 310 grados
Visibilidad: 10 km o más
Débil ChubascosLluvia
Nubes: Escasa nubosidad a 2000 pies sobre el nivel del aeródromo, Tipo de nubes no disponible
Nubes: Nubosidad parcial a 2400 pies sobre el nivel del aeródromo, Tipo de nubes no disponible
Nubes: Cubierto a 4400 pies sobre el nivel del aeródromo, Tipo de nubes no disponible
Temperatura: 16 °C
Rocío: 14 °C
Humedad_relativa: 88%
Presión: 1009 hPa
METAR del 27-02-2024 a las 21:00 UTC
Para mayor información visite www.meteochile.gob.cl
METAR SCFT 272100Z AUTO 30009KT 270V350 9999 -SHRA FEW029/// BKN034/// OVC045/// 17/13 Q1008
Viento: dirección 300 grados, velocidad 9 nudos
Viento con dirección variable entre 270 y 350 grados
Visibilidad: 10 km o más
Débil ChubascosLluvia
Nubes: Escasa nubosidad a 2900 pies sobre el nivel del aeródromo, Tipo de nubes no disponible
Nubes: Nublado a 3400 pies sobre el nivel del aeródromo, Tipo de nubes no disponible
Nubes: Cubierto a 4500 pies sobre el nivel del aeródromo, Tipo de nubes no disponible
Temperatura: 17 °C
Rocío: 13 °C
Humedad_relativa: 77%
Presión: 1008 hPa
METAR del 27-02-2024 a las 20:00 UTC
Para mayor información visite www.meteochile.gob.cl
METAR SCFT 272000Z 28008KT 240V310 9999 -SHRA SCT025 BKN040 19/12 Q1009
Viento: dirección 280 grados, velocidad 8 nudos
Viento con dirección variable entre 240 y 310 grados
Visibilidad: 10 km o más
Débil ChubascosLluvia
Nubes: Nubosidad parcial a 2500 pies sobre el nivel del aeródromo
Nubes: Nublado a 4000 pies sobre el nivel del aeródromo
Temperatura: 19 °C
Rocío: 12 °C
Humedad_relativa: 64%
Presión: 1009 hPa
METAR del 27-02-2024 a las 19:00 UTC
Para mayor información visite www.meteochile.gob.cl
METAR SCFT 271900Z 32006KT 280V010 9999 VCSH BKN025 OVC040 19/11 Q1009
Viento: dirección 320 grados, velocidad 6 nudos
Viento con dirección variable entre 280 y 010 grados
Visibilidad: 10 km o más
En los alrededores, Chubascos
Nubes: Nublado a 2500 pies sobre el nivel del aeródromo
Nubes: Cubierto a 4000 pies sobre el nivel del aeródromo
Temperatura: 19 °C
Rocío: 11 °C
Humedad_relativa: 60%
Presión: 1009 hPa
METAR del 27-02-2024 a las 18:00 UTC
Para mayor información visite www.meteochile.gob.cl
METAR SCFT 271800Z 33005KT 300V040 9999 VCSH SCT025 BKN040 19/11 Q1010 RESHRA
Viento: dirección 330 grados, velocidad 5 nudos
Viento con dirección variable entre 300 y 040 grados
Visibilidad: 10 km o más
En los alrededores, Chubascos
Nubes: Nubosidad parcial a 2500 pies sobre el nivel del aeródromo
Nubes: Nublado a 4000 pies sobre el nivel del aeródromo
Temperatura: 19 °C
Rocío: 11 °C
Humedad_relativa: 60%
Presión: 1010 hPa
Se observó recientemente ChubascosLluvia
METAR del 27-02-2024 a las 17:00 UTC
Para mayor información visite www.meteochile.gob.cl
METAR SCFT 271700Z 31009KT 260V020 9999 VCSH BKN030 OVC050 19/09 Q1010
Viento: dirección 310 grados, velocidad 9 nudos
Viento con dirección variable entre 260 y 020 grados
Visibilidad: 10 km o más
En los alrededores, Chubascos
Nubes: Nublado a 3000 pies sobre el nivel del aeródromo
Nubes: Cubierto a 5000 pies sobre el nivel del aeródromo
Temperatura: 19 °C
Rocío: 9 °C
Humedad_relativa: 52%
Presión: 1010 hPa
METAR del 27-02-2024 a las 16:00 UTC
Para mayor información visite www.meteochile.gob.cl
METAR SCFT 271600Z 31009KT 270V360 9999 VCSH BKN040 OVC060 20/08 Q1010
Viento: dirección 310 grados, velocidad 9 nudos
Viento con dirección variable entre 270 y 360 grados
Visibilidad: 10 km o más
En los alrededores, Chubascos
Nubes: Nublado a 4000 pies sobre el nivel del aeródromo
Nubes: Cubierto a 6000 pies sobre el nivel del aeródromo
Temperatura: 20 °C
Rocío: 8 °C
Humedad_relativa: 46%
Presión: 1010 hPa
METAR del 27-02-2024 a las 15:00 UTC
Para mayor información visite www.meteochile.gob.cl
METAR SCFT 271500Z 27004KT 210V340 CAVOK 17/10 Q1012
Viento: dirección 270 grados, velocidad 4 nudos
Viento con dirección variable entre 210 y 340 grados
Visibilidad: 10 km o más,
    sin nubes bajo los 5.000 pies o bajo del MSA (Mínimo de Seguridad del Aeródromo),
    sin cumulonimbus, y sin fenómenos de tiempo significativo en el aeródromo o alrededores
Temperatura: 17 °C
Rocío: 10 °C
Humedad_relativa: 63%
Presión: 1012 hPa